createdAt,value
2022-11-19T00:01:27.714Z,1.36
2022-11-19T00:03:56.215Z,1.33
2022-11-19T00:06:27.073Z,1.29
2022-11-19T00:08:55.502Z,1.24
2022-11-19T00:11:45.446Z,1.16
2022-11-19T00:14:15.906Z,1.09
2022-11-19T00:16:45.535Z,1.16
2022-11-19T00:19:13.650Z,1.14
2022-11-19T00:21:40.900Z,0.99
2022-11-19T00:24:09.331Z,1.02
2022-11-19T00:26:36.593Z,1.00
2022-11-19T00:29:04.572Z,1.12
2022-11-19T00:31:32.452Z,1.02
2022-11-19T00:33:59.982Z,1.02
2022-11-19T00:36:27.112Z,1.06
2022-11-19T00:38:55.209Z,1.15
2022-11-19T00:41:23.363Z,1.17
2022-11-19T00:43:51.031Z,1.22
2022-11-19T00:46:26.336Z,1.20
2022-11-19T00:48:56.949Z,1.19
2022-11-19T00:51:28.652Z,1.20
2022-11-19T00:53:56.655Z,1.22
2022-11-19T00:56:27.245Z,1.07
2022-11-19T00:58:55.645Z,1.03
2022-11-19T01:01:25.682Z,1.06
2022-11-19T01:03:54.031Z,0.98
2022-11-19T01:06:24.818Z,1.03
2022-11-19T01:08:53.897Z,1.09
2022-11-19T01:11:25.774Z,1.17
2022-11-19T01:13:54.016Z,1.23
2022-11-19T01:16:29.613Z,1.11
2022-11-19T01:18:58.315Z,1.13
2022-11-19T01:21:32.929Z,1.16
2022-11-19T01:24:02.419Z,1.18
2022-11-19T01:26:30.441Z,1.14
2022-11-19T01:28:58.403Z,1.18
2022-11-19T01:31:29.502Z,1.14
2022-11-19T01:33:57.377Z,1.13
2022-11-19T01:36:28.703Z,1.20
2022-11-19T01:38:57.903Z,1.13
2022-11-19T01:41:32.650Z,1.20
2022-11-19T01:44:05.306Z,1.26
2022-11-19T01:46:36.535Z,1.28
2022-11-19T01:49:20.468Z,1.25
2022-11-19T01:51:58.554Z,1.31
2022-11-19T01:54:39.476Z,1.29
2022-11-19T01:57:14.564Z,1.27
2022-11-19T01:59:45.100Z,1.38
2022-11-19T02:02:12.946Z,1.26
2022-11-19T02:04:41.052Z,1.26
2022-11-19T02:07:09.977Z,1.24
2022-11-19T02:09:39.536Z,1.24
2022-11-19T02:12:33.824Z,1.26
2022-11-19T02:15:30.805Z,1.27
2022-11-19T02:18:34.691Z,1.23
2022-11-19T02:21:21.810Z,1.26
2022-11-19T02:24:18.306Z,1.27
2022-11-19T02:27:15.289Z,1.31
2022-11-19T02:30:00.699Z,1.35
2022-11-19T02:33:00.108Z,1.44
2022-11-19T02:36:23.784Z,1.50
2022-11-19T02:39:17.785Z,1.52
2022-11-19T02:42:10.866Z,1.55
2022-11-19T02:45:00.825Z,1.55
2022-11-19T02:47:30.947Z,1.63
2022-11-19T02:50:09.741Z,1.60
2022-11-19T02:52:39.491Z,1.50
2022-11-19T02:55:07.737Z,1.53
2022-11-19T02:57:36.671Z,1.40
2022-11-19T03:00:25.906Z,1.37
2022-11-19T03:03:40.125Z,1.30
2022-11-19T03:06:20.519Z,1.03
2022-11-19T03:08:48.057Z,1.19
2022-11-19T03:11:24.517Z,1.23
2022-11-19T03:14:19.264Z,1.28
2022-11-19T03:17:04.858Z,1.33
2022-11-19T03:19:44.235Z,1.32
2022-11-19T03:22:23.192Z,1.29
2022-11-19T03:25:00.942Z,1.26
2022-11-19T03:27:48.122Z,1.22
2022-11-19T03:30:20.009Z,1.22
2022-11-19T03:33:31.869Z,1.20
2022-11-19T03:36:06.855Z,1.22
2022-11-19T03:38:49.116Z,1.23
2022-11-19T03:41:20.642Z,1.26
2022-11-19T03:43:58.283Z,1.26
2022-11-19T03:46:29.403Z,1.32
2022-11-19T03:49:00.341Z,1.35
2022-11-19T03:51:44.227Z,1.38
2022-11-19T03:54:12.039Z,1.39
2022-11-19T03:56:41.779Z,1.42
2022-11-19T03:59:12.859Z,1.41
2022-11-19T04:01:40.696Z,1.40
2022-11-19T04:04:26.827Z,1.41
2022-11-19T04:06:54.556Z,1.45
2022-11-19T04:09:22.240Z,1.39
2022-11-19T04:14:16.067Z,1.41
2022-11-19T04:16:43.289Z,1.38
2022-11-19T04:19:10.891Z,1.38
2022-11-19T04:21:38.073Z,1.40
2022-11-19T04:24:06.166Z,1.33
2022-11-19T04:26:33.333Z,1.31
2022-11-19T04:29:00.987Z,1.27
2022-11-19T04:31:28.254Z,1.30
2022-11-19T04:33:55.714Z,1.28
2022-11-19T04:36:22.987Z,1.31
2022-11-19T04:38:50.407Z,1.30
2022-11-19T04:41:17.563Z,1.32
2022-11-19T04:43:45.049Z,1.27
2022-11-19T04:46:12.271Z,1.28
2022-11-19T04:48:39.755Z,1.33
2022-11-19T04:51:06.924Z,1.22
2022-11-19T04:53:34.387Z,1.30
2022-11-19T04:56:01.583Z,1.30
2022-11-19T04:58:29.042Z,1.30
2022-11-19T05:00:56.197Z,1.22
2022-11-19T05:03:23.655Z,1.29
2022-11-19T05:05:50.949Z,1.24
2022-11-19T05:08:18.377Z,1.27
2022-11-19T05:10:45.635Z,1.25
2022-11-19T05:13:13.315Z,1.24
2022-11-19T05:15:40.773Z,1.20
2022-11-19T05:18:08.445Z,1.07
2022-11-19T05:20:35.748Z,1.06
2022-11-19T05:23:03.343Z,1.08
2022-11-19T05:25:30.715Z,1.05
2022-11-19T05:27:58.177Z,1.04
2022-11-19T05:30:25.386Z,1.07
2022-11-19T05:32:53.076Z,1.07
2022-11-19T05:35:20.283Z,0.98
2022-11-19T05:37:51.759Z,0.87
2022-11-19T05:40:19.139Z,0.80
2022-11-19T05:42:46.641Z,0.84
2022-11-19T05:45:13.932Z,0.88
2022-11-19T05:47:45.927Z,0.93
2022-11-19T05:50:15.639Z,0.90
2022-11-19T05:52:43.065Z,0.79
2022-11-19T05:55:10.273Z,0.82
2022-11-19T05:57:37.731Z,0.88
2022-11-19T06:00:06.098Z,0.82
2022-11-19T06:02:33.631Z,0.74
2022-11-19T06:05:00.967Z,0.54
2022-11-19T06:07:28.554Z,0.37
2022-11-19T06:09:55.733Z,0.28
2022-11-19T06:12:28.269Z,0.14
2022-11-19T06:15:02.177Z,0.10
2022-11-19T06:17:29.895Z,0.02
2022-11-19T06:19:57.317Z,0.06
2022-11-19T06:22:24.793Z,-0.04
2022-11-19T06:24:51.944Z,0.02
2022-11-19T06:27:19.465Z,0.06
2022-11-19T06:29:46.727Z,0.20
2022-11-19T06:32:14.214Z,0.32
2022-11-19T06:34:41.387Z,0.30
2022-11-19T06:37:08.877Z,0.30
2022-11-19T06:39:36.109Z,0.31
2022-11-19T06:42:22.330Z,0.30
2022-11-19T06:44:49.562Z,0.23
2022-11-19T06:47:17.081Z,0.31
2022-11-19T06:49:44.373Z,0.39
2022-11-19T06:52:11.893Z,0.45
2022-11-19T06:54:42.930Z,0.52
2022-11-19T06:57:10.762Z,0.49
2022-11-19T06:59:39.130Z,0.60
2022-11-19T07:02:08.484Z,0.65
2022-11-19T07:04:35.774Z,0.70
2022-11-19T07:07:03.746Z,0.77
2022-11-19T07:09:31.126Z,0.77
2022-11-19T07:11:58.649Z,0.70
2022-11-19T07:14:25.879Z,0.64
2022-11-19T07:16:53.419Z,0.75
2022-11-19T07:19:21.026Z,0.84
2022-11-19T07:21:48.688Z,0.92
2022-11-19T07:24:17.945Z,0.98
2022-11-19T07:26:45.769Z,1.08
2022-11-19T07:29:15.324Z,1.18
2022-11-19T07:31:42.978Z,1.26
2022-11-19T07:34:11.290Z,1.32
2022-11-19T07:36:38.804Z,1.38
2022-11-19T07:39:06.403Z,1.39
2022-11-19T07:41:52.783Z,1.42
2022-11-19T07:44:20.150Z,1.51
2022-11-19T07:46:47.646Z,1.52
2022-11-19T07:49:15.081Z,1.42
2022-11-19T07:51:42.754Z,1.41
2022-11-19T07:54:12.732Z,1.39
2022-11-19T07:56:40.921Z,1.40
2022-11-19T07:59:08.221Z,1.43
2022-11-19T08:01:36.182Z,1.44
2022-11-19T08:04:05.348Z,1.48
2022-11-19T08:06:34.808Z,1.61
2022-11-19T08:09:04.332Z,1.70
2022-11-19T08:11:32.304Z,1.68
2022-11-19T08:14:02.938Z,1.72
2022-11-19T08:16:52.013Z,1.81
2022-11-19T08:19:24.370Z,1.88
2022-11-19T08:21:52.039Z,1.98
2022-11-19T08:24:21.064Z,1.91
2022-11-19T08:26:49.346Z,1.96
2022-11-19T08:29:20.447Z,1.90
2022-11-19T08:31:48.784Z,2.02
2022-11-19T08:34:17.812Z,2.15
2022-11-19T08:36:45.736Z,2.23
2022-11-19T08:39:13.003Z,2.35
2022-11-19T08:41:59.078Z,2.50
2022-11-19T08:44:26.472Z,2.66
2022-11-19T08:46:54.087Z,2.80
2022-11-19T08:49:21.685Z,2.95
2022-11-19T08:51:49.207Z,3.05
2022-11-19T08:54:17.081Z,3.17
2022-11-19T08:56:45.327Z,3.28
2022-11-19T08:59:12.671Z,3.32
2022-11-19T09:01:40.386Z,3.35
2022-11-19T09:04:07.657Z,3.44
2022-11-19T09:06:35.413Z,3.38
2022-11-19T09:09:04.461Z,3.55
2022-11-19T09:11:32.219Z,3.72
2022-11-19T09:14:00.027Z,3.87
2022-11-19T09:16:27.989Z,3.93
2022-11-19T09:18:55.346Z,4.03
2022-11-19T09:21:23.061Z,4.06
2022-11-19T09:23:50.313Z,4.17
2022-11-19T09:26:19.336Z,4.43
2022-11-19T09:28:47.096Z,4.63
2022-11-19T09:31:18.449Z,5.05
2022-11-19T09:33:49.797Z,5.17
2022-11-19T09:36:19.573Z,5.26
2022-11-19T09:38:48.176Z,5.40
2022-11-19T09:41:21.021Z,5.77
2022-11-19T09:44:13.139Z,6.26
2022-11-19T09:47:00.054Z,6.79
2022-11-19T09:49:51.241Z,7.11
2022-11-19T09:52:25.142Z,7.14
2022-11-19T09:54:56.784Z,7.02
2022-11-19T09:57:50.649Z,7.06
2022-11-19T10:00:23.393Z,7.23
2022-11-19T10:02:51.645Z,7.17
2022-11-19T10:05:30.168Z,11.37
2022-11-19T10:08:28.268Z,13.69
2022-11-19T10:11:27.139Z,12.56
2022-11-19T10:14:44.777Z,11.04
2022-11-19T10:17:59.306Z,10.28
2022-11-19T10:21:11.447Z,10.23
2022-11-19T10:24:18.057Z,12.95
2022-11-19T10:27:09.969Z,13.91
2022-11-19T10:29:40.468Z,14.45
2022-11-19T10:32:41.388Z,15.99
2022-11-19T10:35:18.570Z,15.11
2022-11-19T10:38:01.358Z,15.21
2022-11-19T10:40:40.504Z,14.94
2022-11-19T10:43:46.474Z,14.33
2022-11-19T10:46:19.463Z,14.05
2022-11-19T10:48:51.913Z,13.27
2022-11-19T10:51:24.839Z,12.65
2022-11-19T10:53:55.744Z,11.77
2022-11-19T10:56:54.215Z,10.83
2022-11-19T10:59:27.787Z,10.43
2022-11-19T11:02:09.077Z,9.88
2022-11-19T11:05:11.723Z,9.60
2022-11-19T11:07:55.547Z,8.73
2022-11-19T11:10:39.040Z,13.50
2022-11-19T11:14:15.060Z,16.40
2022-11-19T11:16:48.158Z,15.71
2022-11-19T11:19:20.015Z,14.88
2022-11-19T11:21:54.724Z,13.28
2022-11-19T11:24:31.754Z,11.91
2022-11-19T11:27:19.500Z,10.12
2022-11-19T11:29:46.791Z,9.54
2022-11-19T11:32:33.555Z,8.59
2022-11-19T11:35:05.252Z,8.16
2022-11-19T11:37:35.446Z,8.03
2022-11-19T11:40:02.844Z,7.62
2022-11-19T11:42:31.160Z,7.27
2022-11-19T11:45:01.193Z,6.57
2022-11-19T11:47:39.786Z,6.12
2022-11-19T11:50:23.103Z,5.93
2022-11-19T11:52:54.622Z,5.99
2022-11-19T11:55:24.443Z,5.60
2022-11-19T11:58:23.440Z,5.86
2022-11-19T12:00:56.162Z,5.59
2022-11-19T12:03:23.939Z,5.62
2022-11-19T12:05:58.755Z,5.33
2022-11-19T12:09:08.717Z,5.04
2022-11-19T12:11:55.238Z,4.91
2022-11-19T12:14:39.352Z,4.98
2022-11-19T12:17:19.879Z,4.60
2022-11-19T12:20:19.220Z,4.51
2022-11-19T12:23:32.739Z,4.72
2022-11-19T12:26:37.527Z,4.32
2022-11-19T12:29:54.116Z,4.20
2022-11-19T12:32:45.173Z,4.17
2022-11-19T12:35:44.350Z,4.05
2022-11-19T12:39:03.388Z,4.17
2022-11-19T12:42:03.669Z,4.30
2022-11-19T12:45:11.390Z,4.08
2022-11-19T12:48:08.880Z,4.12
2022-11-19T12:50:42.001Z,4.22
2022-11-19T12:53:50.900Z,4.10
2022-11-19T12:56:39.157Z,3.95
2022-11-19T13:00:11.828Z,3.84
2022-11-19T13:03:04.176Z,3.64
2022-11-19T13:05:55.848Z,3.48
2022-11-19T13:08:48.216Z,3.60
2022-11-19T13:11:43.280Z,3.37
2022-11-19T13:14:31.118Z,3.48
2022-11-19T13:17:01.304Z,3.61
2022-11-19T13:19:38.258Z,3.70
2022-11-19T13:22:22.284Z,3.67
2022-11-19T13:25:00.591Z,3.66
2022-11-19T13:27:31.053Z,3.53
2022-11-19T13:30:14.474Z,3.37
2022-11-19T13:33:23.121Z,3.12
2022-11-19T13:36:03.704Z,3.07
2022-11-19T13:38:55.080Z,3.05
2022-11-19T13:41:33.778Z,3.00
2022-11-19T13:44:19.852Z,2.99
2022-11-19T13:46:58.547Z,3.04
2022-11-19T13:50:05.185Z,3.10
2022-11-19T13:53:02.857Z,3.17
2022-11-19T13:55:35.294Z,3.24
2022-11-19T13:58:39.963Z,3.18
2022-11-19T14:01:43.655Z,3.03
2022-11-19T14:04:59.567Z,3.02
2022-11-19T14:07:51.165Z,3.07
2022-11-19T14:10:45.012Z,3.03
2022-11-19T14:13:35.006Z,3.00
2022-11-19T14:16:38.074Z,3.01
2022-11-19T14:19:32.763Z,2.92
2022-11-19T14:22:40.503Z,2.85
2022-11-19T14:25:28.043Z,2.80
2022-11-19T14:27:55.626Z,2.66
2022-11-19T14:31:04.468Z,2.56
2022-11-19T14:34:04.252Z,2.34
2022-11-19T14:36:47.627Z,2.35
2022-11-19T14:39:31.790Z,2.34
2022-11-19T14:42:22.243Z,2.22
2022-11-19T14:45:03.012Z,2.22
2022-11-19T14:47:36.443Z,2.28
2022-11-19T14:50:31.657Z,2.24
2022-11-19T14:53:02.187Z,2.16
2022-11-19T14:55:34.246Z,2.10
2022-11-19T14:58:24.334Z,2.01
2022-11-19T15:01:08.755Z,1.89
2022-11-19T15:03:37.840Z,1.83
2022-11-19T15:06:08.365Z,1.85
2022-11-19T15:08:54.254Z,1.83
2022-11-19T15:11:21.874Z,1.83
2022-11-19T15:15:03.773Z,1.83
2022-11-19T15:17:33.378Z,1.83
2022-11-19T15:20:20.966Z,1.76
2022-11-19T15:23:06.451Z,1.74
2022-11-19T15:25:51.504Z,1.78
2022-11-19T15:28:41.668Z,1.66
2022-11-19T15:31:25.240Z,1.62
2022-11-19T15:34:21.531Z,1.30
2022-11-19T15:36:56.195Z,1.30
2022-11-19T15:39:44.440Z,1.23
2022-11-19T15:42:20.661Z,1.26
2022-11-19T15:45:01.994Z,1.22
2022-11-19T15:47:44.535Z,1.19
2022-11-19T15:50:21.198Z,1.21
2022-11-19T15:53:13.607Z,1.21
2022-11-19T15:55:52.173Z,1.22
2022-11-19T15:58:26.166Z,1.24
2022-11-19T16:00:55.855Z,1.24
2022-11-19T16:03:23.767Z,1.19
2022-11-19T16:06:16.064Z,1.11
2022-11-19T16:08:52.958Z,1.04
2022-11-19T16:11:43.864Z,0.96
2022-11-19T16:14:46.251Z,0.87
2022-11-19T16:17:39.866Z,0.74
2022-11-19T16:20:17.921Z,0.63
2022-11-19T16:23:21.318Z,0.45
2022-11-19T16:25:49.941Z,0.51
2022-11-19T16:28:34.008Z,0.40
2022-11-19T16:31:05.325Z,0.43
2022-11-19T16:33:34.687Z,0.44
2022-11-19T16:36:20.431Z,0.34
2022-11-19T16:38:53.666Z,0.23
2022-11-19T16:41:43.211Z,0.25
2022-11-19T16:44:18.143Z,0.22
2022-11-19T16:46:46.428Z,0.20
2022-11-19T16:49:57.599Z,0.16
2022-11-19T16:52:38.591Z,0.13
2022-11-19T16:55:18.041Z,0.00
2022-11-19T16:57:56.112Z,-0.03
2022-11-19T17:00:34.679Z,-0.07
2022-11-19T17:03:34.494Z,-0.14
2022-11-19T17:06:04.595Z,-0.16
2022-11-19T17:08:38.288Z,-0.22
2022-11-19T17:11:43.032Z,-0.27
2022-11-19T17:14:20.824Z,-0.31
2022-11-19T17:16:52.279Z,-0.34
2022-11-19T17:19:36.792Z,-0.41
2022-11-19T17:22:17.784Z,-0.43
2022-11-19T17:24:46.620Z,-0.47
2022-11-19T17:27:29.343Z,-0.46
2022-11-19T17:30:19.068Z,-0.44
2022-11-19T17:32:57.924Z,-0.46
2022-11-19T17:35:47.307Z,-0.44
2022-11-19T17:38:27.978Z,-0.45
2022-11-19T17:41:05.178Z,-0.47
2022-11-19T17:43:58.958Z,-0.48
2022-11-19T17:46:29.554Z,-0.52
2022-11-19T17:48:57.394Z,-0.60
2022-11-19T17:51:26.716Z,-0.54
2022-11-19T17:53:56.623Z,-0.56
2022-11-19T17:56:30.955Z,-0.55
2022-11-19T17:58:59.773Z,-0.56
2022-11-19T18:01:27.571Z,-0.63
2022-11-19T18:03:55.133Z,-0.66
2022-11-19T18:06:22.350Z,-0.65
2022-11-19T18:08:49.900Z,-0.69
2022-11-19T18:11:26.110Z,-0.81
2022-11-19T18:13:57.563Z,-0.81
2022-11-19T18:16:28.752Z,-0.81
2022-11-19T18:18:56.346Z,-0.89
2022-11-19T18:21:24.084Z,-0.86
2022-11-19T18:23:52.212Z,-0.88
2022-11-19T18:26:22.945Z,-0.99
2022-11-19T18:28:50.898Z,-1.02
2022-11-19T18:31:26.293Z,-0.99
2022-11-19T18:33:56.791Z,-1.02
2022-11-19T18:36:25.395Z,-0.98
2022-11-19T18:38:54.905Z,-1.08
2022-11-19T18:41:22.617Z,-1.07
2022-11-19T18:44:08.710Z,-1.12
2022-11-19T18:46:35.961Z,-1.11
2022-11-19T18:49:04.514Z,-1.15
2022-11-19T18:51:32.627Z,-1.20
2022-11-19T18:54:00.451Z,-1.17
2022-11-19T18:56:27.737Z,-1.24
2022-11-19T18:58:57.211Z,-1.28
2022-11-19T19:01:27.713Z,-1.25
2022-11-19T19:03:55.186Z,-1.24
2022-11-19T19:06:23.403Z,-1.25
2022-11-19T19:08:51.599Z,-1.25
2022-11-19T19:11:37.348Z,-1.31
2022-11-19T19:14:05.065Z,-1.32
2022-11-19T19:16:32.603Z,-1.33
2022-11-19T19:19:02.218Z,-1.43
2022-11-19T19:21:30.213Z,-1.45
2022-11-19T19:23:57.820Z,-1.45
2022-11-19T19:26:25.039Z,-1.42
2022-11-19T19:28:54.958Z,-1.55
2022-11-19T19:31:24.346Z,-1.50
2022-11-19T19:33:52.816Z,-1.53
2022-11-19T19:36:21.993Z,-1.50
2022-11-19T19:38:49.987Z,-1.52
2022-11-19T19:41:26.730Z,-1.57
2022-11-19T19:43:59.609Z,-1.56
2022-11-19T19:46:27.275Z,-1.59
2022-11-19T19:48:56.468Z,-1.66
2022-11-19T19:51:27.613Z,-1.64
2022-11-19T19:53:56.206Z,-1.64
2022-11-19T19:56:27.937Z,-1.66
2022-11-19T19:58:57.640Z,-1.76
2022-11-19T20:01:29.173Z,-1.65
2022-11-19T20:04:11.766Z,-1.67
2022-11-19T20:06:45.191Z,-1.63
2022-11-19T20:09:13.348Z,-1.67
2022-11-19T20:11:40.870Z,-1.74
2022-11-19T20:14:09.553Z,-1.72
2022-11-19T20:16:40.855Z,-1.75
2022-11-19T20:19:14.613Z,-1.85
2022-11-19T20:21:42.159Z,-1.73
2022-11-19T20:24:13.609Z,-1.78
2022-11-19T20:26:42.829Z,-1.73
2022-11-19T20:29:14.228Z,-1.74
2022-11-19T20:31:47.480Z,-1.81
2022-11-19T20:34:17.064Z,-1.82
2022-11-19T20:36:45.007Z,-1.79
2022-11-19T20:39:13.109Z,-1.86
2022-11-19T20:41:59.166Z,-1.87
2022-11-19T20:44:26.823Z,-1.91
2022-11-19T20:47:02.247Z,-1.88
2022-11-19T20:49:36.485Z,-1.92
2022-11-19T20:52:03.938Z,-1.91
2022-11-19T20:54:32.508Z,-1.87
2022-11-19T20:57:00.760Z,-1.85
2022-11-19T20:59:28.929Z,-1.82
2022-11-19T21:01:57.664Z,-1.94
2022-11-19T21:04:28.634Z,-1.90
2022-11-19T21:06:56.267Z,-1.94
2022-11-19T21:09:24.393Z,-1.94
2022-11-19T21:11:52.139Z,-1.96
2022-11-19T21:14:20.276Z,-1.94
2022-11-19T21:16:47.936Z,-1.93
2022-11-19T21:19:16.433Z,-1.94
2022-11-19T21:21:45.648Z,-1.89
2022-11-19T21:24:13.708Z,-1.83
2022-11-19T21:26:41.651Z,-1.84
2022-11-19T21:29:09.420Z,-1.83
2022-11-19T21:31:46.561Z,-1.84
2022-11-19T21:34:20.783Z,-1.93
2022-11-19T21:36:49.758Z,-1.91
2022-11-19T21:39:20.116Z,-1.96
2022-11-19T21:41:48.006Z,-1.97
2022-11-19T21:44:21.068Z,-2.02
2022-11-19T21:46:49.288Z,-1.94
2022-11-19T21:49:16.866Z,-1.98
2022-11-19T21:51:44.607Z,-1.99
2022-11-19T21:54:12.176Z,-2.00
2022-11-19T21:56:39.472Z,-1.95
2022-11-19T21:59:07.695Z,-1.91
2022-11-19T22:01:35.438Z,-1.94
2022-11-19T22:04:03.428Z,-1.91
2022-11-19T22:06:32.565Z,-1.94
2022-11-19T22:09:00.283Z,-1.95
2022-11-19T22:11:30.775Z,-1.93
2022-11-19T22:14:06.618Z,-1.96
2022-11-19T22:16:40.153Z,-1.95
2022-11-19T22:19:10.107Z,-2.05
2022-11-19T22:21:37.666Z,-2.08
2022-11-19T22:24:06.399Z,-2.22
2022-11-19T22:26:33.703Z,-2.11
2022-11-19T22:29:01.325Z,-2.10
2022-11-19T22:31:28.525Z,-2.13
2022-11-19T22:33:56.444Z,-2.08
2022-11-19T22:36:23.984Z,-2.10
2022-11-19T22:38:52.584Z,-2.09
2022-11-19T22:41:22.185Z,-2.11
2022-11-19T22:43:50.850Z,-2.07
2022-11-19T22:46:19.786Z,-2.04
2022-11-19T22:48:47.936Z,-2.09
2022-11-19T22:51:20.142Z,-2.04
2022-11-19T22:53:52.927Z,-2.04
2022-11-19T22:56:24.032Z,-2.16
2022-11-19T22:58:52.895Z,-2.11
2022-11-19T23:01:24.570Z,-2.15
2022-11-19T23:03:53.678Z,-2.16
2022-11-19T23:06:22.873Z,-2.16
2022-11-19T23:08:51.710Z,-2.13
2022-11-19T23:11:40.478Z,-2.23
2022-11-19T23:14:11.800Z,-2.23
2022-11-19T23:16:40.780Z,-2.31
2022-11-19T23:19:10.087Z,-2.35
2022-11-19T23:21:37.722Z,-2.33
2022-11-19T23:24:06.493Z,-2.36
2022-11-19T23:26:34.384Z,-2.34
2022-11-19T23:29:02.041Z,-2.29
2022-11-19T23:31:33.153Z,-2.30
2022-11-19T23:34:00.899Z,-2.25
2022-11-19T23:36:35.570Z,-2.27
2022-11-19T23:39:05.267Z,-2.31
2022-11-19T23:41:34.567Z,-2.35
2022-11-19T23:44:02.821Z,-2.39
2022-11-19T23:46:33.700Z,-2.35
2022-11-19T23:49:03.300Z,-2.42
2022-11-19T23:51:34.488Z,-2.43
2022-11-19T23:54:03.268Z,-2.40
2022-11-19T23:56:35.982Z,-2.40
2022-11-19T23:59:05.796Z,-2.59
